Topeka, KS

9:13 PM CDT on July 01, 2015 (GMT -0500)
Elmhurst | | Change Station
CLOSE
Current Station
Personal Weather Station
Location: Topeka, KS
Elevation: 953 ft
Nearby Weather Stations

Elev 953 ft 39.05 °N, 95.70 °W | Updated 39 seconds ago

Clear
Clear
83.6 °F
Feels Like 92 °F
N
1.0
Wind Variable Wind from East

Today
High -- | Low -- °F
--% Chance of Precip.
Yesterday
High -- | Low -- °F
Precip. -- in
6:00 AM 8:52 PM
Full, 100% visible
Pressure 29.76 in
Visibility 10.0 miles
Clouds Clear
Heat Index 92 °F
Dew Point 76 °F
Humidity 77%
Rainfall 0.02 in
Snow Depth Not available.
UV 0 out of 12
Pollen 1.10 out of 12
Air Quality Not available.
Flu Activity Not available.
METAR KTOP 020153Z AUTO 04006KT 10SM CLR 28/24 A2978 RMK AO2 SLP076 T02780244

More Conditions Fewer Conditions

Pressure 29.76 in
Visibility 10.0 miles
Clouds Clear
Heat Index 92 °F
Dew Point 76 °F
Humidity 77%
Rainfall 0.02 in
Snow Depth Not available.
UV 0 out of 12
Pollen 1.10 out of 12
Air Quality Not available.
Flu Activity Not available.
METAR KTOP 020153Z AUTO 04006KT 10SM CLR 28/24 A2978 RMK AO2 SLP076 T02780244

More Conditions Fewer Conditions

10-Day Weather Forecast

×

Almanac

Astronomy

Jul. 01, 2015 Rise Set
Actual Time
Civil Twilight
Nautical Twilight
Astronomical Twilight
Moon
Length of Visible Light
Length of Day
Tomorrow will be .
, % of the Moon is Illuminated

Today's Extremes

State Highs State Lows

Community

WunderPhotos

Upload Photos

1,834,376 photos uploaded!

WunderBlogs® & News

Nearby

Air Quality

  Air Quality AQ Index Pollutant
Not available.

Snow Depth

Station Depth Elevation

Earthquake Activity

City Distance Mag. Time & Date
Minimum magnitude displayed is 2.5.

Coastal Water Temperatures

Place Temperature

Stations

Nearby Weather Stations

Station Location Temp. Windchill Dew Point Humidity Wind Precip. Elev Updated Type